Latest Weather Observations for Derby

IDW60801

Issued at 9:02 pm WST Friday 31 July 2015 (issued every 30 minutes, with the page automatically refreshed every 10 minutes)

About weather observations | Map of weather stations | Latest weather observations for WA | Other Formats
Station Details ID: 003032 Name: DERBY AERO Lat: -17.37 Lon: 123.66 Height: 6.2 m
Data from the previous 72 hours. | See also: Recent months at Derby
Date/Time
WST
Temp
°C
App
Temp
°C
Dew
Point
Rel
Hum
%
Delta-T
°C
Wind Press
QNH
hPa
Press
MSL
hPa
Rain
since 9 am
mm
Dir
 
Spd
km/h
Gust
km/h
Spd
kts
Gust
kts
31/09:00pm 21.2 20.6 13.4 61 4.5 WNW 9 11 5 6 1015.4 1015.4 0.0
31/08:30pm 21.8 21.5 14.4 63 4.3 NNW 9 11 5 6 1015.2 1015.2 0.0
31/08:00pm 21.8 21.4 14.2 62 4.4 NNW 9 11 5 6 1014.9 1014.9 0.0
31/07:30pm 22.5 21.8 14.4 60 4.8 NNW 11 13 6 7 1014.5 1014.5 0.0
31/07:00pm 23.5 21.7 13.4 53 5.9 N 15 20 8 11 1014.2 1014.2 0.0
31/06:30pm 23.8 23.1 12.1 48 6.6 NW 7 15 4 8 1013.8 1013.8 0.0
31/06:00pm 24.6 23.2 10.8 42 7.7 NNW 9 11 5 6 1013.6 1013.6 0.0
31/05:30pm 26.2 23.6 10.8 38 8.7 WNW 15 19 8 10 1013.2 1013.2 0.0
31/05:00pm 28.2 24.8 10.4 33 10.0 NW 19 24 10 13 1013.0 1013.0 0.0
31/04:30pm 29.2 25.2 10.3 31 10.7 NW 22 24 12 13 1013.0 1013.0 0.0
31/04:00pm 29.9 25.6 9.4 28 11.5 NW 22 26 12 14 1013.0 1013.0 0.0
31/03:30pm 30.8 25.9 8.5 25 12.3 NW 24 28 13 15 1012.9 1012.9 0.0
31/03:00pm 31.4 26.0 7.8 23 13.0 NW 26 30 14 16 1013.0 1013.0 0.0
31/02:30pm 31.2 27.2 10.5 28 11.9 NW 22 28 12 15 1013.2 1013.2 0.0
31/02:00pm 30.9 26.6 10.8 29 11.6 NW 24 30 13 16 1013.5 1013.5 0.0
31/01:30pm 31.2 25.6 10.0 27 12.1 NNW 30 35 16 19 1013.8 1013.8 0.0
31/01:00pm 32.5 27.0 9.3 24 13.1 NNW 28 35 15 19 1014.2 1014.2 0.0
31/12:30pm 32.1 28.1 8.4 23 13.2 NNE 19 30 10 16 1014.8 1014.8 0.0
31/12:00pm 31.8 27.7 6.1 20 13.7 NNE 17 28 9 15 1015.4 1015.4 0.0
31/11:30am 31.8 27.3 6.8 21 13.5 NNE 20 28 11 15 1015.8 1015.8 0.0
31/11:00am 30.9 28.4 8.0 24 12.6 NNE 11 20 6 11 1016.3 1016.3 0.0
31/10:30am 29.8 27.3 8.2 26 11.8 NE 11 17 6 9 1016.7 1016.7 0.0
31/10:00am 28.5 26.1 8.7 29 10.9 ENE 11 17 6 9 1017.0 1017.0 0.0
31/09:30am 26.7 24.2 8.2 31 10.0 NE 11 17 6 9 1017.4 1017.4 0.0
31/09:00am 24.8 22.6 7.9 34 9.0 ENE 9 17 5 9 1017.4 1017.4 0.0
31/08:30am 23.6 21.8 8.1 37 8.2 ENE 7 11 4 6 1017.2 1017.2 0.0
31/08:00am 21.9 21.3 9.1 44 6.8 NNE 2 11 1 6 1017.0 1017.0 0.0
31/07:30am 18.5 17.6 9.3 55 4.8 NNW 4 6 2 3 1016.9 1016.9 0.0
31/07:00am 16.7 15.4 9.1 61 3.9 NNE 6 9 3 5 1016.7 1016.7 0.0
31/06:30am 14.8 12.4 8.7 67 3.1 NE 11 13 6 7 1016.4 1016.4 0.0
31/06:00am 15.4 13.9 8.6 64 3.4 S 6 7 3 4 1015.8 1015.8 0.0
31/05:30am 16.3 14.4 9.0 62 3.8 S 9 11 5 6 1015.6 1015.6 0.0
31/05:00am 16.7 14.9 9.4 62 3.8 SSE 9 11 5 6 1015.5 1015.5 0.0
31/04:30am 16.7 14.9 9.4 62 3.8 SSE 9 9 5 5 1015.4 1015.4 0.0
31/04:00am 17.0 15.6 9.4 61 4.0 SSE 7 9 4 5 1015.6 1015.6 0.0
31/03:30am 17.7 15.7 10.1 61 4.0 SSE 11 15 6 8 1015.7 1015.7 0.0
31/03:00am 18.2 16.6 10.1 59 4.3 SSE 9 13 5 7 1015.8 1015.8 0.0
31/02:30am 17.2 15.4 9.6 61 4.0 SE 9 13 5 7 1015.9 1015.9 0.0
31/02:00am 17.0 15.6 9.4 61 4.0 S 7 9 4 5 1016.2 1016.2 0.0
31/01:30am 18.6 17.6 10.2 58 4.5 S 6 7 3 4 1016.2 1016.2 0.0
31/01:00am 19.0 17.8 10.3 57 4.7 SSE 7 9 4 5 1016.4 1016.4 0.0
31/12:30am 19.5 17.8 10.0 54 5.1 SSE 9 11 5 6 1016.6 1016.6 0.0
31/12:00am 20.5 18.7 10.9 54 5.2 S 11 13 6 7 1016.8 1016.8 0.0
 
Date/Time
WST
Temp
°C
App
Temp
°C
Dew
Point
Rel
Hum
%
Delta-T
°C
Wind Press
QNH
hPa
Press
MSL
hPa
Rain
since 9 am
mm
Dir
 
Spd
km/h
Gust
km/h
Spd
kts
Gust
kts
30/11:30pm 21.4 18.5 11.1 52 5.7 SSW 17 26 9 14 1016.9 1016.9 0.0
30/11:00pm 21.0 18.4 9.3 47 6.2 SW 13 17 7 9 1017.2 1017.2 0.0
30/10:30pm 20.0 18.7 11.2 57 4.8 SW 9 15 5 8 1017.0 1017.0 0.0
30/10:00pm 18.5 16.7 7.0 47 5.8 WSW 6 9 3 5 1016.9 1016.9 0.0
30/09:30pm 19.4 19.3 9.6 53 5.2 CALM 0 0 0 0 1017.0 1017.0 0.0
30/09:00pm 19.6 18.6 8.9 50 5.6 SSW 4 11 2 6 1016.9 1016.9 0.0
30/08:30pm 21.0 21.0 11.3 54 5.4 NNE 2 6 1 3 1016.6 1016.6 0.0
30/08:00pm 22.5 22.0 10.9 48 6.4 N 4 6 2 3 1016.5 1016.5 0.0
30/07:30pm 23.3 22.7 11.7 48 6.5 N 6 9 3 5 1016.2 1016.2 0.0
30/07:00pm 24.1 24.0 13.9 53 6.0 N 7 7 4 4 1015.9 1015.9 0.0
30/06:30pm 24.4 23.8 13.6 51 6.3 NNW 9 13 5 7 1015.6 1015.6 0.0
30/06:00pm 25.1 24.0 13.0 47 7.0 NNW 11 13 6 7 1015.4 1015.4 0.0
30/05:30pm 26.8 25.0 12.1 40 8.5 NW 13 17 7 9 1015.2 1015.2 0.0
30/05:00pm 29.2 26.5 10.3 31 10.7 WNW 15 20 8 11 1015.1 1015.1 0.0
30/04:30pm 30.5 26.7 9.9 28 11.7 WNW 20 24 11 13 1015.1 1015.1 0.0
30/04:00pm 31.6 27.1 8.6 24 12.8 WNW 22 26 12 14 1014.8 1014.8 0.0
30/03:30pm 32.2 27.7 8.4 23 13.2 W 22 28 12 15 1014.8 1014.8 0.0
30/03:00pm 32.3 28.0 9.2 24 13.0 WNW 22 28 12 15 1014.9 1014.9 0.0
30/02:30pm 32.5 28.6 9.3 24 13.1 WNW 20 28 11 15 1015.0 1015.0 0.0
30/02:00pm 33.0 29.6 9.1 23 13.5 NW 17 35 9 19 1015.2 1015.2 0.0
30/01:30pm 33.3 30.6 5.8 18 14.8 NW 9 22 5 12 1015.6 1015.6 0.0
30/01:00pm 32.7 29.0 6.1 19 14.3 ESE 15 26 8 14 1015.9 1015.9 0.0
30/12:30pm 32.6 29.0 6.7 20 14.1 ENE 15 26 8 14 1016.4 1016.4 0.0
30/12:00pm 32.6 28.5 6.0 19 14.3 ENE 17 26 9 14 1017.0 1017.0 0.0
30/11:30am 31.8 27.3 6.1 20 13.8 ENE 19 30 10 16 1017.5 1017.5 0.0
30/11:00am 31.8 27.5 5.3 19 14.0 ENE 17 30 9 16 1017.9 1017.9 0.0
30/10:30am 30.7 25.7 4.4 19 13.6 NE 20 32 11 17 1018.1 1018.1 0.0
30/10:00am 29.9 24.9 4.5 20 13.1 ENE 20 32 11 17 1018.5 1018.5 0.0
30/09:30am 29.6 23.9 5.0 21 12.8 ENE 24 37 13 20 1018.8 1018.8 0.0
30/09:00am 28.8 23.9 5.0 22 12.3 ENE 20 30 11 16 1018.8 1018.8 0.0
30/08:30am 27.2 22.1 4.3 23 11.6 E 20 28 11 15 1018.6 1018.6 0.0
30/08:00am 25.2 19.6 3.2 24 10.7 E 22 28 12 15 1018.3 1018.3 0.0
30/07:30am 23.3 18.5 2.7 26 9.8 ESE 17 20 9 11 1018.0 1018.0 0.0
30/07:00am 20.3 15.6 1.2 28 8.6 SE 15 19 8 10 1018.0 1018.0 0.0
30/06:30am 18.3 13.9 0.4 30 7.9 SSE 13 17 7 9 1017.9 1017.9 0.0
30/06:00am 17.0 12.5 -0.2 31 7.3 SSE 13 15 7 8 1017.6 1017.6 0.0
30/05:30am 16.4 12.2 -0.8 31 7.2 S 11 13 6 7 1017.1 1017.1 0.0
30/05:00am 17.2 13.4 -1.0 29 7.7 SSE 9 13 5 7 1016.9 1016.9 0.0
30/04:30am 17.7 12.8 -0.5 29 7.8 SSE 15 17 8 9 1016.7 1016.7 0.0
30/04:00am 16.8 12.0 0.0 32 7.2 SSE 15 17 8 9 1016.7 1016.7 0.0
30/03:30am 15.6 11.2 0.2 35 6.6 SSE 13 15 7 8 1016.9 1016.9 0.0
30/03:00am 17.6 13.3 0.7 32 7.4 SE 13 17 7 9 1017.0 1017.0 0.0
30/02:30am 18.7 13.6 0.8 30 7.9 SE 17 19 9 10 1017.1 1017.1 0.0
30/02:00am 17.1 12.7 0.3 32 7.3 SSE 13 13 7 7 1017.4 1017.4 0.0
30/01:30am 17.5 13.8 0.2 31 7.5 SSE 9 13 5 7 1017.6 1017.6 0.0
30/01:00am 18.1 13.8 0.7 31 7.6 SSE 13 15 7 8 1017.8 1017.8 0.0
30/12:30am 18.8 14.5 0.9 30 8.0 S 13 17 7 9 1017.9 1017.9 0.0
30/12:00am 21.7 17.0 0.8 25 9.5 SE 15 17 8 9 1018.1 1018.1 0.0
 
Date/Time
WST
Temp
°C
App
Temp
°C
Dew
Point
Rel
Hum
%
Delta-T
°C
Wind Press
QNH
hPa
Press
MSL
hPa
Rain
since 9 am
mm
Dir
 
Spd
km/h
Gust
km/h
Spd
kts
Gust
kts
29/11:30pm 21.8 17.1 0.9 25 9.5 SE 15 17 8 9 1018.0 1018.0 0.0
29/11:00pm 21.8 17.1 0.9 25 9.5 SE 15 17 8 9 1018.0 1018.0 0.0
29/10:30pm 22.0 17.3 1.1 25 9.6 SE 15 17 8 9 1018.0 1018.0 0.0
29/10:00pm 22.0 17.9 2.2 27 9.3 SE 13 15 7 8 1018.2 1018.2 0.0
29/09:30pm 22.1 18.5 2.8 28 9.2 SE 11 13 6 7 1018.3 1018.3 0.0
29/09:00pm 24.3 20.0 3.0 25 10.3 SE 15 19 8 10 1018.2 1018.2 0.0
29/08:30pm 23.9 20.1 3.8 27 9.8 SE 13 17 7 9 1018.2 1018.2 0.0
29/08:00pm 23.6 20.2 4.0 28 9.6 ESE 11 13 6 7 1018.0 1018.0 0.0
29/07:30pm 24.5 20.8 4.3 27 10.0 SE 13 15 7 8 1017.8 1017.8 0.0
29/07:00pm 25.0 21.3 4.2 26 10.3 ESE 13 15 7 8 1017.3 1017.3 0.0
29/06:30pm 26.3 22.5 4.1 24 11.1 ESE 13 15 7 8 1016.9 1016.9 0.0
29/06:00pm 27.5 23.7 3.9 22 11.8 ESE 13 17 7 9 1016.4 1016.4 0.0
29/05:30pm 29.9 25.2 3.0 18 13.5 SE 17 22 9 12 1016.1 1016.1 0.0
29/05:00pm 31.3 26.1 3.4 17 14.2 SE 20 30 11 16 1015.9 1015.9 0.0
29/04:30pm 32.1 26.4 3.1 16 14.8 SE 22 35 12 19 1015.7 1015.7 0.0
29/04:00pm 32.9 27.2 2.9 15 15.3 SE 22 30 12 16 1015.5 1015.5 0.0
29/03:30pm 33.0 26.9 2.9 15 15.4 ESE 24 35 13 19 1015.5 1015.5 0.0
29/03:00pm 33.6 27.2 3.4 15 15.6 ESE 26 35 14 19 1015.5 1015.5 0.0
29/02:30pm 33.2 27.5 3.1 15 15.5 SE 22 32 12 17 1015.6 1015.6 0.0
29/02:00pm 33.1 28.0 3.9 16 15.2 SE 20 32 11 17 1015.9 1015.9 0.0
29/01:30pm 32.9 27.9 4.6 17 14.9 ESE 20 32 11 17 1016.3 1016.3 0.0
29/01:00pm 33.2 28.7 4.0 16 15.2 ESE 17 28 9 15 1016.8 1016.8 0.0
29/12:30pm 32.5 26.7 4.3 17 14.7 E 24 33 13 18 1017.3 1017.3 0.0
29/12:00pm 31.8 26.4 4.6 18 14.2 E 22 28 12 15 1017.8 1017.8 0.0
29/11:30am 31.0 26.4 5.4 20 13.5 E 19 32 10 17 1018.3 1018.3 0.0
29/11:00am 30.4 25.5 4.9 20 13.2 E 20 33 11 18 1018.9 1018.9 0.0
29/10:30am 29.7 25.0 5.1 21 12.8 ENE 19 30 10 16 1019.4 1019.4 0.0
29/10:00am 29.5 24.6 4.9 21 12.7 E 20 26 11 14 1019.8 1019.8 0.0
29/09:30am 28.3 23.5 4.6 22 12.1 ENE 19 30 10 16 1020.0 1020.0 0.0
29/09:00am 27.4 22.4 4.5 23 11.6 ENE 20 32 11 17 1020.2 1020.2 0.0
29/08:30am 26.6 21.7 5.0 25 11.0 ENE 20 32 11 17 1020.2 1020.2 0.0
29/08:00am 25.9 21.9 4.9 26 10.6 ENE 15 24 8 13 1020.0 1020.0 0.0
29/07:30am 24.5 21.7 5.3 29 9.7 ENE 9 15 5 8 1019.7 1019.7 0.0
29/07:00am 23.2 20.0 5.1 31 9.0 E 11 17 6 9 1019.4 1019.4 0.0
29/06:30am 22.0 19.3 5.4 34 8.3 E 9 15 5 8 1019.1 1019.1 0.0
29/06:00am 20.1 17.7 5.4 38 7.2 ESE 7 13 4 7 1018.6 1018.6 0.0
29/05:30am 20.3 17.2 5.5 38 7.3 SSE 11 11 6 6 1018.4 1018.4 0.0
29/05:00am 21.9 18.9 5.8 35 8.1 SE 11 15 6 8 1018.1 1018.1 0.0
29/04:30am 22.1 19.1 5.9 35 8.2 ESE 11 13 6 7 1018.0 1018.0 0.0
29/04:00am 23.2 19.8 6.0 33 8.7 E 13 17 7 9 1017.9 1017.9 0.0
29/03:30am 24.1 19.7 6.4 32 9.1 ESE 19 24 10 13 1017.8 1017.8 0.0
29/03:00am 24.2 19.7 6.9 33 9.0 ESE 20 28 11 15 1017.7 1017.7 0.0
29/02:30am 24.3 19.8 7.0 33 9.0 ESE 20 26 11 14 1017.7 1017.7 0.0
29/02:00am 24.5 20.1 7.2 33 9.0 ESE 20 26 11 14 1017.8 1017.8 0.0
29/01:30am 24.3 20.0 7.0 33 9.0 ESE 19 20 10 11 1017.9 1017.9 0.0
29/01:00am 24.8 20.5 7.0 32 9.3 ESE 19 20 10 11 1018.2 1018.2 0.0
29/12:30am 25.0 21.1 7.2 32 9.3 ESE 17 20 9 11 1018.4 1018.4 0.0
29/12:00am 25.3 21.0 7.0 31 9.6 ESE 19 20 10 11 1018.5 1018.5 0.0
 
Date/Time
WST
Temp
°C
App
Temp
°C
Dew
Point
Rel
Hum
%
Delta-T
°C
Wind Press
QNH
hPa
Press
MSL
hPa
Rain
since 9 am
mm
Dir
 
Spd
km/h
Gust
km/h
Spd
kts
Gust
kts
28/11:30pm 25.7 21.4 6.8 30 9.9 ESE 19 24 10 13 1018.5 1018.5 0.0
28/11:00pm 24.8 21.3 7.4 33 9.1 ESE 15 17 8 9 1018.5 1018.5 0.0
28/10:30pm 24.8 21.3 7.4 33 9.2 SE 15 17 8 9 1018.6 1018.6 0.0
28/10:00pm 25.4 21.6 7.5 32 9.4 SE 17 19 9 10 1018.7 1018.7 0.0
28/09:30pm 26.1 22.0 7.7 31 9.8 SE 19 22 10 12 1018.6 1018.6 0.0

Other Formats:

Comma delimited format used in spreadsheet applications
http://www.bom.gov.au/fwo/IDW60801/IDW60801.95205.axf

JavaScript Object Notation format (JSON) in row-major order
http://www.bom.gov.au/fwo/IDW60801/IDW60801.95205.json